Shillington, Pennsylvania
Current Conditions -  °F | °C
As of 9:54 AM on Saturday 22 Nov 2014 (Local Time) from KRDG Reporting Station
Clear Clear  
Wind Chill: 26°   Ceiling: Unl
Heat Index: 34°   Visibility: 10mi
Dew Point: 13°   Wind: 10mph
Humidity: 42%   Direction: 220°SW
Pressure: 30.45"   Gusts: NA
Location:  40.2909°N, 75.9397°W
Report Text: KRDG 221454Z 22009KT 10SM CLR 01/M11 A3045 RMK AO2 SLP322 T00111106 58012
Loading
Personal Weather Stations






























Interactive Weather Map New forecast layout! Learn more

10-Day Weather Forecast

Advertisements
Track Severe Weather on mobile